Time;durP1;ratioP1;P1;durP2;ratioP2;P2;SDS_P1;SDS_P2;PMS_P1;PMS_P2;Temp;Humidity;BMP_temperature;BMP_pressure;BME280_temperature;BME280_humidity;BME280_pressure;Samples;Min_cycle;Max_cycle;Signal;HPM_P1;HPM_P2
2021/03/31 00:00:23;;;;;;;45.00;24.23;;;;;;;16.30;48.24;101912.44;5022091;28;20385;-83
2021/03/31 00:03:12;;;;;;;46.38;23.65;;;;;;;16.22;48.77;101901.16;5016403;28;20046;-84
2021/03/31 00:05:57;;;;;;;50.72;25.48;;;;;;;16.17;48.81;101904.06;5023315;28;20037;-84
2021/03/31 00:08:42;;;;;;;;;;;;;;;16.11;48.57;101905.34;5042388;28;20037;-83
2021/03/31 00:11:27;;;;;;;43.55;22.27;;;;;;;16.09;48.70;101902.13;5040209;28;19913;-84
2021/03/31 00:14:14;;;;;;;51.20;24.35;;;;;;;16.06;49.01;101891.78;5041864;28;20409;-85
2021/03/31 00:17:00;;;;;;;49.67;25.85;;;;;;;16.00;49.02;101898.56;5039424;28;20046;-82
2021/03/31 00:19:44;;;;;;;52.05;25.40;;;;;;;16.10;48.74;101891.97;5038705;28;20053;-83
2021/03/31 00:22:30;;;;;;;53.33;24.10;;;;;;;16.12;48.63;101892.44;5036868;28;20046;-84
2021/03/31 00:25:16;;;;;;;58.30;27.50;;;;;;;16.11;48.60;101894.38;5034972;28;20443;-84
2021/03/31 00:28:02;;;;;;;46.58;26.33;;;;;;;16.31;47.55;101892.88;5038300;28;20046;-82
2021/03/31 00:30:48;;;;;;;44.53;24.65;;;;;;;16.31;47.20;101886.59;5042908;28;20046;-84
2021/03/31 00:33:33;;;;;;;46.78;24.02;;;;;;;16.12;47.80;101882.25;5034933;28;20060;-83
2021/03/31 00:36:18;;;;;;;;;;;;;;;16.03;48.25;101886.16;5040382;28;20053;-83
2021/03/31 00:39:06;;;;;;;45.72;24.50;;;;;;;15.94;48.36;101879.84;5036569;28;20381;-81
2021/03/31 00:41:52;;;;;;;43.90;24.42;;;;;;;16.02;47.69;101874.34;5039114;28;20041;-83
2021/03/31 00:44:37;;;;;;;49.95;26.58;;;;;;;15.87;47.96;101874.84;5041414;28;20049;-84
2021/03/31 00:47:22;;;;;;;43.33;24.45;;;;;;;15.82;48.03;101867.59;5038331;28;20045;-83
2021/03/31 00:50:10;;;;;;;51.88;25.52;;;;;;;15.61;48.75;101869.34;5015529;28;20034;-84
2021/03/31 00:52:57;;;;;;;53.65;25.98;;;;;;;15.68;48.62;101861.44;5016570;28;20049;-83
2021/03/31 00:55:42;;;;;;;48.60;26.05;;;;;;;15.53;48.95;101872.06;5017192;28;20042;-81
2021/03/31 00:58:28;;;;;;;45.58;24.73;;;;;;;15.55;48.98;101861.56;5039374;28;20045;-83
2021/03/31 01:01:12;;;;;;;37.25;19.65;;;;;;;15.55;48.85;101861.56;5038950;28;20050;-84
2021/03/31 01:03:57;;;;;;;;;;;;;;;15.57;48.67;101867.56;5037589;28;20041;-85
2021/03/31 01:06:42;;;;;;;49.60;23.25;;;;;;;15.65;48.22;101859.34;5040039;28;19917;-83
2021/03/31 01:09:27;;;;;;;37.45;21.02;;;;;;;15.55;48.84;101861.56;5040218;28;20045;-83
2021/03/31 01:12:19;;;;;;;53.58;26.92;;;;;;;15.54;49.19;101869.03;5036761;28;20440;-82
2021/03/31 01:15:11;;;;;;;52.88;26.60;;;;;;;15.50;49.54;101861.69;5033093;28;20045;-84
2021/03/31 01:17:59;;;;;;;54.88;26.92;;;;;;;15.46;49.50;101855.25;5036148;28;20037;-82
2021/03/31 01:21:14;;;;;;;47.47;25.42;;;;;;;15.28;50.04;101855.22;5041590;28;20045;-84
2021/03/31 01:24:30;;;;;;;43.42;25.83;;;;;;;15.19;50.00;101848.91;5038570;28;20049;-83
2021/03/31 01:27:30;;;;;;;47.60;25.13;;;;;;;15.24;49.52;101847.94;5039841;28;20440;-82
2021/03/31 01:30:28;;;;;;;48.80;24.23;;;;;;;15.20;50.01;101847.78;5038250;28;20033;-84
2021/03/31 01:33:41;;;;;;;49.83;26.23;;;;;;;15.22;49.45;101845.53;5034376;28;20041;-83
2021/03/31 01:36:29;;;;;;;44.72;24.15;;;;;;;15.12;49.55;101845.03;5038438;28;20497;-84
2021/03/31 01:39:14;;;;;;;54.03;26.08;;;;;;;14.98;50.13;101842.41;5035711;28;20501;-83
2021/03/31 01:42:00;;;;;;;41.08;20.65;;;;;;;14.91;50.38;101853.00;5037485;28;20049;-81
2021/03/31 01:44:47;;;;;;;51.30;26.60;;;;;;;14.83;51.19;101843.63;5040017;28;20041;-81
2021/03/31 01:47:37;;;;;;;55.47;29.10;;;;;;;14.80;51.08;101843.44;5035563;28;20045;-84
2021/03/31 01:50:24;;;;;;;49.80;26.67;;;;;;;14.84;51.25;101837.03;5032869;28;20490;-84
2021/03/31 01:53:11;;;;;;;53.92;28.52;;;;;;;14.79;51.38;101845.38;5034170;28;20417;-82
2021/03/31 01:55:57;;;;;;;52.85;26.75;;;;;;;14.69;50.65;101842.09;5035831;28;20045;-80
2021/03/31 01:58:45;;;;;;;50.83;27.00;;;;;;;14.59;51.06;101847.84;5033098;28;20045;-78
2021/03/31 02:01:31;;;;;;;54.40;26.05;;;;;;;14.57;51.08;101839.97;5018744;28;20034;-81
2021/03/31 02:04:17;;;;;;;52.58;28.33;;;;;;;14.51;51.75;101842.03;5017655;28;20045;-82
2021/03/31 02:07:09;;;;;;;62.35;29.55;;;;;;;14.54;51.54;101833.19;5033436;28;20482;-81
2021/03/31 02:09:55;;;;;;;54.42;26.52;;;;;;;14.55;51.37;101837.53;5036682;28;20037;-84
2021/03/31 02:12:44;;;;;;;49.38;26.35;;;;;;;14.55;51.35;101832.06;5036000;28;20041;-85
2021/03/31 02:15:31;;;;;;;58.03;27.45;;;;;;;14.44;51.73;101838.13;5033293;28;20041;-84
2021/03/31 02:18:17;;;;;;;55.53;26.85;;;;;;;14.51;51.51;101833.84;5036580;28;20041;-82
2021/03/31 02:21:04;;;;;;;47.45;25.27;;;;;;;14.52;50.97;101842.84;5035320;28;20045;-83
2021/03/31 02:23:50;;;;;;;58.63;28.25;;;;;;;14.40;51.65;101842.63;5039471;28;20498;-84
2021/03/31 02:26:34;;;;;;;54.10;25.95;;;;;;;14.39;51.48;101841.00;5038989;28;20045;-84
2021/03/31 02:29:19;;;;;;;51.60;25.83;;;;;;;14.35;51.61;101829.84;5038573;28;20045;-83
2021/03/31 02:32:07;;;;;;;43.65;20.17;;;;;;;14.51;52.13;101839.31;5033374;28;20498;-85
2021/03/31 02:34:54;;;;;;;55.33;26.77;;;;;;;14.45;52.66;101842.47;5037146;28;20413;-85
2021/03/31 02:37:40;;;;;;;49.88;26.75;;;;;;;14.34;53.08;101836.44;5037493;28;20041;-85
2021/03/31 02:40:28;;;;;;;47.58;26.60;;;;;;;14.28;53.58;101831.38;5038739;28;20045;-80
2021/03/31 02:43:16;;;;;;;57.15;27.83;;;;;;;14.17;53.50;101824.59;5033191;28;20421;-84
2021/03/31 02:46:02;;;;;;;56.53;28.63;;;;;;;14.04;53.91;101832.53;5015419;28;20042;-85
2021/03/31 02:48:50;;;;;;;52.38;26.85;;;;;;;13.99;54.36;101829.13;5026549;28;20041;-84
2021/03/31 02:51:37;;;;;;;55.08;26.05;;;;;;;13.81;54.94;101827.38;5037723;28;20077;-83
2021/03/31 02:54:24;;;;;;;58.13;27.40;;;;;;;13.89;53.69;101829.34;5034336;28;20037;-83
2021/03/31 02:57:10;;;;;;;54.40;28.17;;;;;;;13.74;53.63;101822.31;5038779;28;20053;-83
2021/03/31 02:59:56;;;;;;;50.00;27.58;;;;;;;13.61;54.12;101829.44;5035251;28;20046;-83
2021/03/31 03:02:43;;;;;;;56.83;27.65;;;;;;;13.45;54.37;101825.47;5034842;28;20053;-82
2021/03/31 03:05:29;;;;;;;58.03;26.83;;;;;;;13.50;54.32;101819.88;5020473;28;20038;-83
2021/03/31 03:08:14;;;;;;;61.10;27.35;;;;;;;13.49;53.92;101817.44;5018888;28;20046;-81
2021/03/31 03:11:03;;;;;;;56.22;22.80;;;;;;;13.45;53.96;101819.19;5015312;28;20038;-82
2021/03/31 03:13:49;;;;;;;50.80;25.75;;;;;;;13.26;54.47;101816.56;5013141;28;20049;-82
2021/03/31 03:16:37;;;;;;;55.00;26.35;;;;;;;13.16;54.64;101817.59;5035297;28;20037;-83
2021/03/31 03:19:23;;;;;;;54.80;28.23;;;;;;;13.09;54.93;101816.38;5038177;28;20045;-82
2021/03/31 03:22:08;;;;;;;42.88;22.02;;;;;;;13.11;54.63;101811.41;5035809;28;20045;-81
2021/03/31 03:24:55;;;;;;;56.08;26.55;;;;;;;12.93;55.36;101804.16;5038024;28;20049;-81
2021/03/31 03:27:43;;;;;;;61.65;27.25;;;;;;;13.13;54.95;101817.41;5034207;28;20049;-84
2021/03/31 03:30:31;;;;;;;52.03;27.33;;;;;;;13.23;54.94;101801.63;5031889;28;20037;-84
2021/03/31 03:33:16;;;;;;;53.33;28.30;;;;;;;13.34;54.65;101801.41;5032593;28;20489;-83
2021/03/31 03:36:11;;;;;;;51.40;27.30;;;;;;;13.06;55.27;101801.41;5038110;28;20049;-83
2021/03/31 03:38:56;;;;;;;41.90;20.80;;;;;;;13.05;55.15;101805.25;5031670;28;20038;-84
2021/03/31 03:41:43;;;;;;;55.70;26.70;;;;;;;13.10;55.17;101810.63;5036627;28;20042;-85
2021/03/31 03:44:28;;;;;;;65.22;27.38;;;;;;;13.10;55.35;101807.06;5038116;28;20041;-83
2021/03/31 03:47:13;;;;;;;66.05;26.15;;;;;;;13.11;55.48;101808.66;5037521;28;20482;-85
2021/03/31 03:50:06;;;;;;;54.63;26.20;;;;;;;13.12;54.70;101807.59;5033557;28;20413;-85
2021/03/31 03:52:52;;;;;;;50.72;26.38;;;;;;;13.19;55.16;101806.06;5040369;28;20042;-84
2021/03/31 03:55:37;;;;;;;55.88;25.95;;;;;;;13.15;54.84;101810.53;5012361;28;20037;-83
2021/03/31 03:58:24;;;;;;;44.78;24.98;;;;;;;13.04;55.13;101813.75;5018306;28;20046;-84
2021/03/31 04:01:10;;;;;;;54.35;25.60;;;;;;;13.13;54.66;101811.94;5019628;28;20505;-83
2021/03/31 04:03:54;;;;;;;;;;;;;;;13.21;54.64;101813.94;5031760;28;20409;-84
2021/03/31 04:06:40;;;;;;;51.22;24.85;;;;;;;13.20;54.41;101809.63;5048053;28;19917;-83
2021/03/31 04:09:25;;;;;;;34.33;19.27;;;;;;;13.32;54.77;101812.63;5033851;28;20498;-84
2021/03/31 04:12:11;;;;;;;36.88;19.23;;;;;;;13.25;54.80;101815.78;5037347;28;20053;-84
2021/03/31 04:14:57;;;;;;;48.35;23.83;;;;;;;13.20;54.36;101806.88;5039621;28;20433;-85
2021/03/31 04:17:44;;;;;;;47.08;22.70;;;;;;;13.19;55.37;101813.47;5039448;28;20516;-82
2021/03/31 04:20:31;;;;;;;49.65;24.10;;;;;;;13.24;55.15;101813.34;5040703;28;20414;-84
2021/03/31 04:23:16;;;;;;;52.00;25.95;;;;;;;13.21;54.85;101813.94;5062586;22;20045;31
2021/03/31 04:26:01;;;;;;;48.85;20.35;;;;;;;13.22;54.07;101816.38;5003723;28;20054;-83
2021/03/31 04:28:47;;;;;;;48.42;25.92;;;;;;;13.15;54.34;101812.47;5013529;28;20049;-83
2021/03/31 04:31:33;;;;;;;;;;;;;;;13.20;54.04;101812.34;5020955;28;20046;-84
2021/03/31 04:34:19;;;;;;;52.75;23.92;;;;;;;13.14;54.78;101810.84;5024498;28;19913;-84
2021/03/31 04:37:04;;;;;;;52.22;24.55;;;;;;;13.19;54.92;101817.00;5027243;28;20406;-83
2021/03/31 04:39:49;;;;;;;42.08;20.02;;;;;;;13.16;54.49;101816.78;5019913;28;20046;-82
2021/03/31 04:42:34;;;;;;;38.95;21.98;;;;;;;12.92;54.84;101818.91;5021313;28;20494;-83
2021/03/31 04:45:19;;;;;;;46.40;19.00;;;;;;;12.95;54.79;101818.31;5019847;28;20037;-83
2021/03/31 04:48:04;;;;;;;50.70;24.23;;;;;;;13.01;54.65;101814.34;5019788;28;20054;-83
2021/03/31 04:50:49;;;;;;;;;;;;;;;12.68;55.57;101810.91;5026262;28;20403;-84
2021/03/31 04:53:34;;;;;;;54.70;24.55;;;;;;;12.75;55.52;101814.03;5022383;28;19917;-84
2021/03/31 04:56:19;;;;;;;52.88;26.17;;;;;;;12.62;55.71;101812.94;5026451;28;20041;-83
2021/03/31 04:59:04;;;;;;;54.97;25.40;;;;;;;12.52;55.84;101813.13;5026079;28;20041;-84
2021/03/31 05:01:50;;;;;;;51.30;25.83;;;;;;;12.63;55.81;101819.19;5022472;28;20042;-84
2021/03/31 05:04:35;;;;;;;47.13;25.85;;;;;;;12.61;55.58;101807.75;5021424;28;20046;-84
2021/03/31 05:07:20;;;;;;;49.65;23.13;;;;;;;12.76;55.40;101816.47;5024606;28;20046;-83
2021/03/31 05:10:05;;;;;;;58.95;24.60;;;;;;;12.86;55.37;101819.00;5021858;28;20628;-83
2021/03/31 05:12:51;;;;;;;56.92;22.48;;;;;;;12.92;55.07;101813.44;5021050;28;20505;-85
2021/03/31 05:15:35;;;;;;;39.08;18.60;;;;;;;12.91;54.94;101815.34;5033696;28;20042;-85
2021/03/31 05:18:20;;;;;;;44.10;20.67;;;;;;;12.92;55.40;101816.16;5022398;28;20041;-83
2021/03/31 05:21:06;;;;;;;40.55;20.70;;;;;;;12.83;56.01;101822.34;5021837;28;20050;-84
2021/03/31 05:23:50;;;;;;;;;;;;;;;12.88;55.84;101815.16;5028721;28;20037;-83
2021/03/31 05:26:36;;;;;;;50.85;24.73;;;;;;;12.80;55.76;101812.03;5033154;28;19917;-85
2021/03/31 05:29:21;;;;;;;44.88;20.55;;;;;;;12.65;56.29;101808.78;5040918;28;20045;-85
2021/03/31 05:32:06;;;;;;;37.65;20.23;;;;;;;12.76;55.71;101812.94;5026150;28;20034;-87
2021/03/31 05:34:52;;;;;;;61.22;26.58;;;;;;;12.83;55.59;101816.88;5021694;28;20041;-85
2021/03/31 05:37:37;;;;;;;47.80;19.77;;;;;;;12.86;55.36;101810.81;5025751;28;20053;-85
2021/03/31 05:40:22;;;;;;;65.28;28.05;;;;;;;12.86;55.52;101824.47;5041105;28;20037;-85
2021/03/31 05:43:08;;;;;;;85.85;42.33;;;;;;;12.95;55.38;101821.84;5050700;28;20041;-85
2021/03/31 05:45:55;;;;;;;326.08;161.02;;;;;;;12.99;55.54;101825.59;5040219;28;20042;-85
2021/03/31 05:48:39;;;;;;;130.15;63.08;;;;;;;13.09;55.40;101824.56;5046227;28;20037;-83
2021/03/31 05:51:24;;;;;;;;;;;;;;;13.19;55.45;101819.75;5048564;28;20037;-85
2021/03/31 05:54:10;;;;;;;434.98;215.95;;;;;;;13.32;55.25;101826.28;5043782;28;19913;-84
2021/03/31 05:56:55;;;;;;;118.32;62.00;;;;;;;13.31;55.27;101827.38;5043394;28;20041;-85
2021/03/31 05:59:40;;;;;;;95.18;51.03;;;;;;;13.40;55.42;101828.31;5046453;28;20045;-85
2021/03/31 06:02:27;;;;;;;55.05;26.15;;;;;;;13.43;55.19;101815.94;5048960;28;20042;-85
2021/03/31 06:05:14;;;;;;;67.97;32.20;;;;;;;13.53;54.81;101818.44;5043777;28;20053;-84
2021/03/31 06:08:01;;;;;;;74.53;29.65;;;;;;;13.65;55.56;101825.00;5044845;28;20045;-85
2021/03/31 06:10:45;;;;;;;62.05;28.95;;;;;;;13.78;54.77;101822.50;5040687;28;20041;-85
2021/03/31 06:13:49;;;;;;;;;;;;;;;13.85;54.64;101817.44;5044516;28;20041;-84
2021/03/31 06:16:44;;;;;;;68.63;28.73;;;;;;;13.94;54.60;101824.56;5041364;28;19912;-84
2021/03/31 06:19:29;;;;;;;78.72;27.75;;;;;;;14.04;54.54;101820.78;5044830;28;20045;-84
2021/03/31 06:25:17;;;;;;;63.28;28.50;;;;;;;14.34;54.21;101820.00;5033022;28;19913;-84
2021/03/31 06:28:03;;;;;;;60.88;28.88;;;;;;;14.50;54.39;101818.53;5035890;28;20041;-86
2021/03/31 06:30:48;;;;;;;65.65;27.58;;;;;;;14.71;54.62;101828.94;5048639;28;20041;-89
2021/03/31 06:33:34;;;;;;;;;;;;;;;14.86;55.31;101829.31;5050517;28;20041;-90
2021/03/31 06:36:32;;;;;;;;;;;;;;;18.64;45.22;101840.03;5048657;28;19913;-81
2021/03/31 06:39:35;;;;;;;62.55;25.70;;;;;;;22.10;35.51;101840.34;5040285;28;20376;-79
2021/03/31 06:42:33;;;;;;;52.10;23.55;;;;;;;25.31;30.39;101842.22;5033526;28;20041;-79
2021/03/31 06:45:34;;;;;;;60.13;24.95;;;;;;;26.86;27.06;101846.75;5017631;28;20046;-81
2021/03/31 06:48:22;;;;;;;47.15;25.48;;;;;;;27.15;26.39;101850.34;5018874;28;20046;-81
2021/03/31 06:51:23;;;;;;;58.67;26.02;;;;;;;27.17;25.88;101847.94;5015552;28;20045;-82
2021/03/31 06:54:16;;;;;;;66.25;27.55;;;;;;;26.96;26.71;101843.19;5019974;28;20413;-81
2021/03/31 06:57:02;;;;;;;72.55;26.77;;;;;;;26.82;26.84;101838.34;5016249;28;20056;-82
2021/03/31 07:00:04;;;;;;;68.10;29.08;;;;;;;27.96;25.72;101832.53;5021178;28;20046;-81
2021/03/31 07:02:50;;;;;;;64.22;25.65;;;;;;;27.80;25.72;101837.78;5018133;28;20037;-81
2021/03/31 07:05:39;;;;;;;80.85;26.70;;;;;;;29.36;23.50;101837.47;5015984;28;20045;-82
2021/03/31 07:08:34;;;;;;;72.97;26.65;;;;;;;29.18;23.70;101845.25;5020038;28;20046;-81
2021/03/31 07:11:37;;;;;;;58.88;25.27;;;;;;;27.92;24.81;101834.56;5021598;28;20038;-82
2021/03/31 07:14:23;;;;;;;51.95;24.48;;;;;;;27.74;25.06;101831.81;5034312;28;20041;-80
2021/03/31 07:17:08;;;;;;;47.10;24.90;;;;;;;28.18;24.59;101828.44;5038951;28;20041;-80
2021/03/31 07:19:53;;;;;;;45.78;23.92;;;;;;;28.61;24.22;101831.72;5036766;28;20049;-80
2021/03/31 07:22:39;;;;;;;52.40;24.35;;;;;;;29.44;23.09;101833.41;5040523;28;20042;-80
2021/03/31 07:25:24;;;;;;;48.13;23.27;;;;;;;30.17;22.45;101832.91;5035935;28;20038;-80
2021/03/31 07:28:14;;;;;;;48.33;23.27;;;;;;;31.22;20.58;101831.59;5035826;28;20042;-81
2021/03/31 07:31:02;;;;;;;44.25;21.77;;;;;;;31.25;20.62;101839.94;5044738;28;20520;-80
2021/03/31 07:33:57;;;;;;;77.53;25.17;;;;;;;32.10;19.99;101843.81;5039075;28;20437;-81
2021/03/31 07:36:46;;;;;;;69.10;24.63;;;;;;;33.03;18.79;101842.41;5036128;28;20041;-81
2021/03/31 07:39:33;;;;;;;66.20;24.75;;;;;;;33.86;17.61;101840.50;5038861;28;20421;-81
2021/03/31 07:42:20;;;;;;;52.42;25.02;;;;;;;33.91;16.96;101837.13;5037202;28;20049;-81
2021/03/31 07:45:08;;;;;;;49.83;22.23;;;;;;;33.87;17.38;101833.63;5033663;28;20065;-81
2021/03/31 07:47:54;;;;;;;43.17;22.50;;;;;;;33.95;16.81;101834.19;5032806;28;20037;-81
2021/03/31 07:50:39;;;;;;;55.75;24.70;;;;;;;33.83;17.14;101838.56;5038843;28;20042;-80
2021/03/31 07:53:24;;;;;;;58.35;23.52;;;;;;;34.30;16.56;101837.97;5027053;28;20041;-81
2021/03/31 07:56:14;;;;;;;71.10;27.55;;;;;;;34.38;16.02;101847.00;5044109;28;20042;-81
2021/03/31 07:59:09;;;;;;;52.25;21.45;;;;;;;31.49;18.63;101843.53;5053521;28;20041;-81
2021/03/31 08:01:57;;;;;;;59.85;26.42;;;;;;;33.12;18.05;101838.97;5043153;28;20046;-81
2021/03/31 08:04:42;;;;;;;57.92;22.40;;;;;;;35.05;16.16;101841.94;5040928;28;20045;-84
2021/03/31 08:07:31;;;;;;;41.85;21.13;;;;;;;34.91;15.58;101845.25;5039408;28;20045;-82
2021/03/31 08:10:36;;;;;;;50.33;21.45;;;;;;;36.11;14.39;101855.00;5034679;28;20053;-84
2021/03/31 08:13:35;;;;;;;44.72;20.92;;;;;;;35.73;14.27;101851.63;5030647;28;21016;-85
2021/03/31 08:16:26;;;;;;;51.95;20.75;;;;;;;36.19;14.71;101849.84;5032043;28;20564;-86
2021/03/31 08:19:44;;;;;;;50.72;21.65;;;;;;;36.15;14.04;101847.16;5043632;28;20037;-82
2021/03/31 08:22:38;;;;;;;46.70;23.15;;;;;;;36.87;14.03;101850.69;5003671;28;20057;-82
2021/03/31 08:25:25;;;;;;;56.67;23.13;;;;;;;35.94;14.28;101850.81;5038182;28;20501;-80
2021/03/31 08:28:11;;;;;;;45.47;22.77;;;;;;;35.69;13.81;101848.94;5032463;28;20417;-82
2021/03/31 08:31:19;;;;;;;48.33;23.30;;;;;;;34.82;15.37;101845.16;5024464;28;20037;-82
2021/03/31 08:34:05;;;;;;;56.28;24.60;;;;;;;34.25;16.08;101841.34;5024496;28;20038;-82
2021/03/31 08:36:51;;;;;;;45.05;22.77;;;;;;;33.60;16.05;101841.66;5021656;28;20038;-83
2021/03/31 08:39:35;;;;;;;38.75;20.77;;;;;;;34.14;14.97;101843.69;5025231;28;20046;-82
2021/03/31 08:42:20;;;;;;;44.63;20.55;;;;;;;34.61;14.89;101835.34;5022343;28;20046;-83
2021/03/31 08:45:06;;;;;;;44.10;20.83;;;;;;;34.63;14.93;101841.34;5024488;28;20042;-82
2021/03/31 08:47:51;;;;;;;44.13;19.83;;;;;;;33.61;15.68;101843.25;5044856;28;20041;-82
2021/03/31 08:50:40;;;;;;;46.08;19.92;;;;;;;35.20;14.13;101837.38;5024151;28;20045;-81
2021/03/31 08:53:25;;;;;;;42.45;19.42;;;;;;;35.84;12.91;101832.19;5020111;28;20037;-82
2021/03/31 08:56:21;;;;;;;47.97;21.25;;;;;;;36.93;12.42;101843.16;5028357;28;20037;-82
2021/03/31 08:59:07;;;;;;;43.45;23.05;;;;;;;36.49;12.90;101840.50;5041304;28;20053;-82
2021/03/31 09:01:53;;;;;;;44.95;21.25;;;;;;;36.85;12.30;101832.09;5039347;28;20421;-83
2021/03/31 09:04:39;;;;;;;48.17;22.45;;;;;;;35.92;14.14;101827.81;5030055;28;20042;-81
2021/03/31 09:07:24;;;;;;;53.80;26.10;;;;;;;36.50;13.16;101824.28;5035047;28;20048;-81
2021/03/31 09:10:13;;;;;;;43.47;20.05;;;;;;;37.82;12.08;101820.06;5037680;28;20033;-83
2021/03/31 09:12:58;;;;;;;45.40;20.85;;;;;;;37.94;12.05;101821.94;5049989;28;20041;-80
2021/03/31 09:15:55;;;;;;;39.78;20.35;;;;;;;38.73;10.78;101820.44;5054953;28;20045;-82
2021/03/31 09:18:43;;;;;;;44.28;20.23;;;;;;;36.94;12.75;101814.28;5044483;28;20045;-82
2021/03/31 09:21:29;;;;;;;48.47;24.08;;;;;;;37.46;12.32;101812.41;5041137;28;20045;-82
2021/03/31 09:24:19;;;;;;;41.58;20.27;;;;;;;37.43;12.63;101804.84;5043233;28;20045;-82
2021/03/31 09:27:07;;;;;;;46.42;21.90;;;;;;;38.48;12.38;101813.19;5054717;28;20045;-82
2021/03/31 09:29:54;;;;;;;52.33;21.27;;;;;;;40.13;10.69;101809.59;5047699;28;20041;-85
2021/03/31 09:32:59;;;;;;;43.47;21.38;;;;;;;38.93;11.50;101797.09;5060175;28;20038;-84
2021/03/31 09:35:44;;;;;;;52.03;21.10;;;;;;;39.13;11.28;101800.06;5070505;28;20049;-84
2021/03/31 09:38:29;;;;;;;42.67;21.33;;;;;;;39.21;11.67;101795.59;5068794;28;20045;-85
2021/03/31 09:41:16;;;;;;;40.47;20.77;;;;;;;40.32;10.63;101799.56;5051813;28;20049;-85
2021/03/31 09:44:02;;;;;;;41.63;20.35;;;;;;;39.10;11.40;101786.84;5072303;28;20041;-85
2021/03/31 09:46:48;;;;;;;47.78;19.58;;;;;;;39.11;10.71;101793.31;5065647;28;20053;-86
2021/03/31 09:49:35;;;;;;;38.20;17.15;;;;;;;43.01;7.85;101799.38;5050955;28;20033;-84
2021/03/31 09:52:39;;;;;;;36.95;17.35;;;;;;;41.38;9.17;101783.72;5057605;28;20047;-85
2021/03/31 09:55:24;;;;;;;36.13;18.17;;;;;;;40.67;9.37;101790.19;5058705;28;20047;-84
2021/03/31 09:58:10;;;;;;;33.80;17.35;;;;;;;38.51;10.47;101775.25;5041550;28;20055;-86
2021/03/31 10:00:55;;;;;;;41.35;18.88;;;;;;;42.40;8.40;101786.88;5073448;28;20037;-85
2021/03/31 10:03:41;;;;;;;45.40;20.75;;;;;;;39.36;10.96;101770.00;5072568;28;20065;-82
2021/03/31 10:06:26;;;;;;;34.95;16.10;;;;;;;40.98;9.26;101764.63;5068153;28;20049;-84
2021/03/31 10:09:18;;;;;;;34.97;16.92;;;;;;;40.73;9.28;101771.88;5073926;28;20052;-83
2021/03/31 10:12:03;;;;;;;29.33;14.40;;;;;;;40.59;8.68;101770.63;5074027;28;20520;-85
2021/03/31 10:14:55;;;;;;;34.08;14.90;;;;;;;41.10;8.54;101763.47;5071438;28;20052;-83
2021/03/31 10:17:41;;;;;;;28.17;14.52;;;;;;;40.83;8.40;101763.94;5075882;28;20047;-84
2021/03/31 10:20:38;;;;;;;28.15;13.55;;;;;;;39.73;8.73;101759.75;5045402;28;20049;-83
2021/03/31 10:23:34;;;;;;;36.38;15.27;;;;;;;40.29;9.04;101759.84;5050163;28;20052;-83
2021/03/31 10:26:26;;;;;;;27.35;14.52;;;;;;;40.86;8.80;101746.59;5083065;22;20052;-80
2021/03/31 10:29:24;;;;;;;35.92;15.50;;;;;;;42.09;7.77;101750.56;5042467;28;20048;-81
2021/03/31 10:32:11;;;;;;;38.80;16.55;;;;;;;41.60;8.26;101749.69;5076821;28;20059;-80
2021/03/31 10:34:55;;;;;;;32.22;15.50;;;;;;;40.38;8.78;101742.63;5042866;28;20055;-80
2021/03/31 10:37:52;;;;;;;39.33;17.05;;;;;;;41.75;8.16;101735.25;5045527;28;20055;-80
2021/03/31 10:52:24;;;;;;;22.15;10.48;;;;;;;41.34;6.82;101712.56;5043663;28;20052;-84
2021/03/31 10:55:09;;;;;;;30.70;10.80;;;;;;;41.67;6.10;101708.41;5040592;28;20056;-84
2021/03/31 10:57:54;;;;;;;36.20;13.10;;;;;;;42.26;6.76;101706.44;5036324;28;20064;-84
2021/03/31 11:00:39;;;;;;;31.13;14.05;;;;;;;43.49;6.22;101706.75;5034008;28;20538;-85
2021/03/31 11:03:25;;;;;;;22.90;10.90;;;;;;;42.44;6.35;101710.19;5041901;28;20053;-80
2021/03/31 11:06:11;;;;;;;37.25;12.23;;;;;;;46.68;4.06;101710.50;5034355;28;20048;-79
2021/03/31 11:08:56;;;;;;;22.58;10.93;;;;;;;45.04;4.58;101699.69;5049528;28;20053;-85
2021/03/31 11:11:41;;;;;;;25.05;12.68;;;;;;;44.96;5.34;101697.88;5058487;28;20044;-80
2021/03/31 11:14:28;;;;;;;34.47;14.10;;;;;;;44.53;5.68;101698.41;5073799;28;20047;-80
2021/03/31 11:17:32;;;;;;;35.30;14.00;;;;;;;45.69;4.71;101692.31;5042878;28;20051;-82
2021/03/31 11:20:42;;;;;;;70.53;14.10;;;;;;;45.16;5.20;101688.84;5056395;28;20586;-81
2021/03/31 11:26:31;;;;;;;30.90;13.63;;;;;;;44.38;5.57;101680.75;5045197;28;20040;-80
2021/03/31 11:29:16;;;;;;;29.02;12.50;;;;;;;47.36;3.84;101675.63;5052895;28;20053;-81
2021/03/31 11:32:01;;;;;;;24.60;12.02;;;;;;;47.29;3.94;101679.97;5065701;28;20404;-82
2021/03/31 11:34:46;;;;;;;28.25;13.15;;;;;;;46.64;4.41;101669.69;5055608;28;20064;-83
2021/03/31 11:37:32;;;;;;;42.25;18.73;;;;;;;45.45;5.02;101656.50;5048810;28;20126;-84
2021/03/31 11:40:17;;;;;;;28.42;13.50;;;;;;;45.18;4.77;101651.75;5048676;28;20044;-82
2021/03/31 11:43:02;;;;;;;33.03;13.25;;;;;;;43.47;5.93;101649.19;5053309;28;20048;-84
2021/03/31 11:45:48;;;;;;;28.35;15.05;;;;;;;45.62;5.09;101644.81;5054786;28;20044;-84
2021/03/31 11:48:33;;;;;;;27.88;14.32;;;;;;;44.04;5.85;101647.75;5049754;28;20048;-84
2021/03/31 11:51:18;;;;;;;22.83;11.63;;;;;;;44.44;5.21;101637.66;5049927;28;20044;-81
2021/03/31 11:54:04;;;;;;;23.55;11.90;;;;;;;44.40;4.86;101640.81;5053663;28;20067;-80
2021/03/31 11:56:49;;;;;;;27.80;11.27;;;;;;;43.82;5.16;101620.72;5043474;28;20045;-80
2021/03/31 11:59:34;;;;;;;28.27;11.00;;;;;;;43.52;4.96;101621.84;5047446;28;20040;-81
2021/03/31 12:02:19;;;;;;;17.13;9.15;;;;;;;43.85;4.69;101619.63;5054958;28;20055;-78
2021/03/31 12:05:04;;;;;;;22.63;9.77;;;;;;;41.43;6.00;101608.78;5064589;28;20414;-82
2021/03/31 12:07:49;;;;;;;26.38;10.05;;;;;;;43.70;4.79;101616.31;5047998;28;20051;-81
2021/03/31 12:10:34;;;;;;;21.95;10.35;;;;;;;44.00;4.74;101618.56;5049564;28;20067;-79
2021/03/31 12:13:19;;;;;;;51.22;10.40;;;;;;;43.56;4.76;101599.41;5044452;28;20045;-81
2021/03/31 12:16:05;;;;;;;21.13;8.57;;;;;;;44.08;4.22;101608.09;5056174;28;20514;-78
2021/03/31 12:18:49;;;;;;;28.33;8.68;;;;;;;44.62;3.94;101603.34;5051701;28;20052;-80
2021/03/31 12:21:34;;;;;;;14.23;7.20;;;;;;;44.39;4.05;101596.22;5049902;28;20233;-82
2021/03/31 12:24:21;;;;;;;13.70;7.38;;;;;;;46.33;3.18;101596.34;5055146;28;20056;-81
2021/03/31 12:27:08;;;;;;;74.50;11.45;;;;;;;46.96;3.42;101588.31;5050154;28;20047;-83
2021/03/31 12:29:53;;;;;;;25.88;10.52;;;;;;;44.08;4.66;101583.09;5051018;28;20518;-82
2021/03/31 12:32:39;;;;;;;20.42;8.73;;;;;;;44.35;4.48;101578.50;5052346;28;20040;-83
2021/03/31 12:35:25;;;;;;;20.27;9.80;;;;;;;42.44;5.29;101572.88;5053249;28;20052;-85
2021/03/31 12:38:10;;;;;;;21.42;10.23;;;;;;;44.06;4.57;101576.31;5046765;28;20052;-83
2021/03/31 12:40:55;;;;;;;17.35;9.55;;;;;;;45.25;4.39;101565.00;5050605;28;20052;-79
2021/03/31 12:43:40;;;;;;;23.27;9.88;;;;;;;44.81;4.37;101568.25;5047452;28;20411;-82
2021/03/31 12:46:26;;;;;;;29.30;11.65;;;;;;;43.30;5.53;101556.75;5047838;28;20044;-80
2021/03/31 12:49:11;;;;;;;23.40;11.15;;;;;;;41.68;6.62;101553.63;5053058;28;20048;-81
2021/03/31 12:52:08;;;;;;;27.88;12.10;;;;;;;43.52;5.58;101559.59;5048023;28;20036;-81
2021/03/31 12:54:59;;;;;;;28.35;12.65;;;;;;;42.18;6.21;101538.72;5045930;28;20048;-78
2021/03/31 12:57:46;;;;;;;25.13;11.82;;;;;;;43.04;5.76;101534.91;5050482;28;20403;-82
2021/03/31 13:00:31;;;;;;;21.75;10.18;;;;;;;45.92;4.17;101533.34;5045382;28;20517;-82
2021/03/31 13:03:16;;;;;;;23.85;11.02;;;;;;;46.40;4.30;101528.72;5045086;28;20059;-83
2021/03/31 13:06:01;;;;;;;24.58;12.18;;;;;;;44.46;5.14;101523.91;5049960;28;20522;-82